Time;durP1;ratioP1;P1;durP2;ratioP2;P2;SDS_P1;SDS_P2;PMS_P1;PMS_P2;Temp;Humidity;BMP_temperature;BMP_pressure;BME280_temperature;BME280_humidity;BME280_pressure;Samples;Min_cycle;Max_cycle;Signal;HPM_P1;HPM_P2
2023/08/17 00:02:27;;;;;;;8.27;3.72;;;;;;;18.35;70.71;96484.34;5110639;28;20135;-69
2023/08/17 00:04:57;;;;;;;4.15;3.63;;;;;;;18.36;70.92;96486.03;5110239;28;20052;-69
2023/08/17 00:07:24;;;;;;;5.28;3.83;;;;;;;18.36;70.71;96486.03;5110135;28;20059;-69
2023/08/17 00:09:52;;;;;;;4.57;4.00;;;;;;;18.38;70.94;96487.63;5110206;28;20052;-69
2023/08/17 00:12:19;;;;;;;6.07;4.20;;;;;;;18.37;70.71;96485.09;5110173;28;20044;-69
2023/08/17 00:14:47;;;;;;;5.97;4.00;;;;;;;18.33;70.91;96480.97;5110109;28;20087;-69
2023/08/17 00:17:14;;;;;;;5.65;4.30;;;;;;;18.28;71.32;96484.78;5109865;28;20052;-69
2023/08/17 00:19:42;;;;;;;7.22;4.00;;;;;;;18.27;70.75;96479.59;5109914;28;20087;-69
2023/08/17 00:22:10;;;;;;;6.35;4.20;;;;;;;18.14;71.86;96483.09;5109917;28;20086;-69
2023/08/17 00:24:37;;;;;;;5.35;4.15;;;;;;;18.10;72.37;96481.63;5109925;28;20389;-69
2023/08/17 00:27:04;;;;;;;5.28;4.30;;;;;;;18.05;71.90;96476.63;5109660;28;20052;-69
2023/08/17 00:29:31;;;;;;;6.68;3.92;;;;;;;18.05;72.37;96476.63;5109871;28;20070;-69
2023/08/17 00:31:59;;;;;;;9.10;3.85;;;;;;;18.06;72.44;96478.31;5109823;28;20048;-69
2023/08/17 00:34:26;;;;;;;6.22;4.35;;;;;;;18.06;72.47;96473.00;5109697;28;20048;-69
2023/08/17 00:36:55;;;;;;;4.00;3.60;;;;;;;18.11;72.45;96478.03;5109787;28;20131;-69
2023/08/17 00:39:22;;;;;;;4.13;3.63;;;;;;;18.06;72.33;96469.50;5095482;28;20044;-69
2023/08/17 00:41:49;;;;;;;8.40;4.47;;;;;;;18.04;72.52;96468.78;5095939;28;20097;-69
2023/08/17 00:44:15;;;;;;;5.63;4.10;;;;;;;18.04;72.20;96463.50;5096025;28;20044;-69
2023/08/17 00:46:43;;;;;;;4.72;4.13;;;;;;;18.00;72.19;96465.50;5095928;28;20105;-69
2023/08/17 00:49:11;;;;;;;6.28;4.32;;;;;;;17.94;72.50;96463.28;5095936;28;20481;-69
2023/08/17 00:51:40;;;;;;;4.18;3.63;;;;;;;17.91;72.81;96460.84;5095778;28;20505;-69
2023/08/17 00:54:10;;;;;;;6.60;3.67;;;;;;;17.84;72.92;96456.91;5095846;28;20097;-69
2023/08/17 00:56:38;;;;;;;5.50;4.15;;;;;;;17.83;72.92;96456.09;5095713;28;20130;-69
2023/08/17 00:59:05;;;;;;;7.43;4.72;;;;;;;17.76;73.11;96458.28;5095926;28;20052;-69
2023/08/17 01:01:32;;;;;;;6.00;4.30;;;;;;;17.70;73.37;96452.59;5095563;28;20044;-69
2023/08/17 01:03:59;;;;;;;7.70;4.13;;;;;;;17.73;73.49;96445.28;5095581;28;20044;-69
2023/08/17 01:06:27;;;;;;;4.93;3.88;;;;;;;17.75;72.61;96450.47;5095583;28;20040;-69
2023/08/17 01:08:55;;;;;;;5.18;3.92;;;;;;;17.71;72.61;96451.63;5095580;28;20052;-69
2023/08/17 01:11:33;;;;;;;6.78;4.25;;;;;;;17.68;73.19;96442.97;5095478;28;20130;-69
2023/08/17 01:14:06;;;;;;;5.30;3.90;;;;;;;17.68;73.14;96442.97;5095441;28;20433;-69
2023/08/17 01:16:40;;;;;;;5.28;4.22;;;;;;;17.67;73.17;96432.50;5095503;28;20386;-69
2023/08/17 01:19:09;;;;;;;4.00;3.60;;;;;;;17.60;73.40;96442.63;5095302;28;20453;-69
2023/08/17 01:21:43;;;;;;;5.77;4.30;;;;;;;17.60;73.41;96441.78;5095295;28;20051;-69
2023/08/17 01:24:12;;;;;;;4.53;3.78;;;;;;;17.60;73.30;96434.69;5095173;28;20572;-69
2023/08/17 01:26:39;;;;;;;4.88;3.75;;;;;;;17.62;73.50;96438.09;5095037;28;20056;-69
2023/08/17 01:29:07;;;;;;;6.80;4.30;;;;;;;17.57;73.59;96439.38;5095177;28;20044;-69
2023/08/17 01:31:43;;;;;;;5.43;4.50;;;;;;;17.59;73.58;96448.03;5095054;28;20055;-69
2023/08/17 01:34:18;;;;;;;7.00;4.00;;;;;;;17.62;73.43;96442.53;5095097;28;20516;-69
2023/08/17 01:36:51;;;;;;;9.07;4.20;;;;;;;17.62;73.50;96440.75;5095010;28;20044;-69
2023/08/17 01:39:24;;;;;;;7.60;3.95;;;;;;;17.60;72.99;96441.78;5094876;28;20047;-69
2023/08/17 01:41:53;;;;;;;7.80;4.22;;;;;;;17.57;73.12;96437.56;5095200;28;20079;-69
2023/08/17 01:44:21;;;;;;;6.25;3.88;;;;;;;17.52;73.23;96435.22;5095091;28;20097;-69
2023/08/17 01:46:49;;;;;;;5.15;3.83;;;;;;;17.50;73.54;96433.63;5094699;28;20054;-69
2023/08/17 01:49:16;;;;;;;5.88;4.35;;;;;;;17.43;74.03;96436.69;5093805;28;20123;-69
2023/08/17 01:51:43;;;;;;;7.43;4.05;;;;;;;17.43;73.90;96434.06;5094708;28;20055;-69
2023/08/17 01:54:10;;;;;;;8.70;4.15;;;;;;;17.40;74.49;96430.78;5094585;28;20485;-69
2023/08/17 01:56:38;;;;;;;6.68;4.10;;;;;;;17.39;74.36;96432.56;5094626;28;20058;-69
2023/08/17 01:59:05;;;;;;;7.57;4.68;;;;;;;17.38;74.19;96444.09;5094837;28;20090;-69
2023/08/17 02:01:32;;;;;;;7.32;4.65;;;;;;;17.38;74.66;96436.19;5094548;28;20154;-69
2023/08/17 02:04:02;;;;;;;6.50;4.43;;;;;;;17.37;74.71;96441.56;5094750;28;20044;-69
2023/08/17 02:06:29;;;;;;;5.60;4.47;;;;;;;17.35;74.64;96436.38;5094294;28;20044;-69
2023/08/17 02:08:56;;;;;;;5.47;4.28;;;;;;;17.34;75.08;96434.66;5094353;28;20044;-69
2023/08/17 02:11:23;;;;;;;7.97;4.40;;;;;;;17.34;75.06;96434.66;5094652;28;20048;-69
2023/08/17 02:13:51;;;;;;;7.85;4.35;;;;;;;17.34;74.79;96428.56;5094267;28;20048;-69
2023/08/17 02:16:18;;;;;;;5.43;4.28;;;;;;;17.24;75.28;96431.81;5094299;28;20052;-69
2023/08/17 02:18:45;;;;;;;5.55;4.25;;;;;;;17.24;75.98;96426.50;5094079;28;20051;-69
2023/08/17 02:21:12;;;;;;;9.20;4.40;;;;;;;17.24;75.92;96423.88;5094232;28;20056;-69
2023/08/17 02:23:39;;;;;;;4.93;4.32;;;;;;;17.19;76.12;96436.56;5094129;28;20391;-69
2023/08/17 02:26:06;;;;;;;7.50;4.03;;;;;;;17.25;76.29;96419.44;5093837;28;20048;-69
2023/08/17 02:28:33;;;;;;;6.03;4.57;;;;;;;17.18;76.73;96425.13;5093913;28;20050;-69
2023/08/17 02:31:02;;;;;;;6.13;4.78;;;;;;;17.11;77.37;96429.13;5094023;28;20044;-69
2023/08/17 02:33:29;;;;;;;6.85;5.10;;;;;;;17.14;77.47;96430.72;5093926;28;20051;-69
2023/08/17 02:35:56;;;;;;;5.50;4.85;;;;;;;17.18;77.02;96435.72;5093925;28;20087;-69
2023/08/17 02:38:23;;;;;;;7.57;4.95;;;;;;;17.13;77.35;96432.50;5093877;28;20101;-69
2023/08/17 02:40:50;;;;;;;7.93;4.60;;;;;;;17.10;77.78;96443.28;5093800;28;20101;-69
2023/08/17 02:43:17;;;;;;;6.18;5.07;;;;;;;17.09;77.51;96438.09;5093691;28;20459;-69
2023/08/17 02:45:44;;;;;;;6.25;4.65;;;;;;;17.13;77.24;96435.16;5093636;28;20646;-69
2023/08/17 02:48:13;;;;;;;5.25;4.75;;;;;;;17.12;77.28;96444.03;5093621;28;20058;-69
2023/08/17 02:50:40;;;;;;;6.63;5.03;;;;;;;17.15;77.40;96442.97;5093642;28;20489;-69
2023/08/17 02:53:07;;;;;;;7.32;4.70;;;;;;;17.15;77.36;96445.63;5093622;28;20076;-69
2023/08/17 02:55:34;;;;;;;10.05;5.00;;;;;;;17.10;77.45;96445.09;5093502;28;20040;-69
2023/08/17 02:58:02;;;;;;;6.38;4.30;;;;;;;17.13;77.33;96444.91;5093536;28;20048;-69
2023/08/17 03:00:29;;;;;;;6.70;4.40;;;;;;;17.11;77.48;96437.06;5093136;28;20374;-69
2023/08/17 03:02:56;;;;;;;9.43;4.90;;;;;;;17.14;77.62;96438.66;5093551;28;20079;-69
2023/08/17 03:05:25;;;;;;;8.43;4.50;;;;;;;17.16;76.67;96442.88;5093657;28;20055;-69
2023/08/17 03:07:52;;;;;;;8.00;4.90;;;;;;;17.19;77.13;96441.84;5093444;28;20055;-69
2023/08/17 03:10:19;;;;;;;6.00;4.78;;;;;;;17.14;77.34;96441.28;5093406;28;20044;-69
2023/08/17 03:12:46;;;;;;;6.43;4.60;;;;;;;17.15;77.12;96442.97;5093539;28;20482;-69
2023/08/17 03:15:13;;;;;;;5.43;4.82;;;;;;;17.17;77.14;96447.25;5093309;28;20040;-69
2023/08/17 03:17:40;;;;;;;8.88;5.15;;;;;;;17.14;76.89;96441.28;5093278;28;20071;-69
2023/08/17 03:20:08;;;;;;;5.53;4.55;;;;;;;17.06;76.91;96436.47;5093233;28;20481;-69
2023/08/17 03:22:36;;;;;;;9.45;4.50;;;;;;;17.10;77.05;96440.63;5093162;28;20425;-69
2023/08/17 03:25:04;;;;;;;5.90;4.75;;;;;;;17.13;76.87;96451.00;5093245;28;20126;-69
2023/08/17 03:27:31;;;;;;;6.60;4.72;;;;;;;17.16;77.32;96450.81;5092739;28;20087;-69
2023/08/17 03:29:58;;;;;;;7.63;4.65;;;;;;;17.16;76.78;96445.53;5093161;28;20040;-69
2023/08/17 03:32:25;;;;;;;7.32;5.00;;;;;;;17.13;76.96;96447.53;5093144;28;20044;-69
2023/08/17 03:34:52;;;;;;;7.32;4.32;;;;;;;17.13;76.87;96450.19;5092983;28;20461;-69
2023/08/17 03:37:19;;;;;;;5.57;4.85;;;;;;;17.05;77.40;96440.06;5092968;28;20464;-69
2023/08/17 03:39:48;;;;;;;8.95;4.95;;;;;;;17.07;77.50;96448.78;5092964;28;20059;-69
2023/08/17 03:42:15;;;;;;;5.35;4.20;;;;;;;17.07;77.62;96453.22;5092976;28;20049;-69
2023/08/17 03:44:42;;;;;;;6.90;4.32;;;;;;;17.12;77.40;96454.59;5092745;28;20098;-69
2023/08/17 03:47:09;;;;;;;9.63;4.63;;;;;;;17.12;77.47;96454.59;5092923;28;20127;-69
2023/08/17 03:49:39;;;;;;;5.88;4.13;;;;;;;17.17;77.29;96451.66;5092923;28;20056;-69
2023/08/17 03:52:06;;;;;;;5.43;4.63;;;;;;;17.15;77.27;96450.91;5092891;28;20050;-69
2023/08/17 03:54:33;;;;;;;5.38;4.13;;;;;;;17.22;77.21;96448.72;5092842;28;20456;-69
2023/08/17 03:57:02;;;;;;;6.28;4.40;;;;;;;17.26;77.24;96460.78;5092997;28;20078;-69
2023/08/17 03:59:29;;;;;;;9.77;4.15;;;;;;;17.30;77.15;96457.81;5092882;28;20048;-69
2023/08/17 04:01:56;;;;;;;4.97;4.05;;;;;;;17.38;76.91;96461.75;5092689;28;20486;-69
2023/08/17 04:04:23;;;;;;;5.05;4.40;;;;;;;17.61;76.76;96452.25;5092749;28;20052;-69
2023/08/17 04:06:50;;;;;;;7.53;3.95;;;;;;;18.01;75.56;96461.91;5092769;28;20117;-69
2023/08/17 04:09:17;;;;;;;6.15;3.67;;;;;;;18.40;73.92;96461.03;5092726;28;20463;-70
2023/08/17 04:11:44;;;;;;;7.72;4.15;;;;;;;18.77;72.69;96461.03;5092760;28;20044;-69
2023/08/17 04:14:13;;;;;;;3.97;3.58;;;;;;;19.16;70.70;96462.69;5095678;28;20052;-69
2023/08/17 04:16:41;;;;;;;7.80;3.53;;;;;;;19.46;69.66;96469.31;5096510;28;20093;-69
2023/08/17 04:19:08;;;;;;;8.63;4.00;;;;;;;19.87;68.74;96463.63;5096486;28;20106;-69
2023/08/17 04:21:35;;;;;;;5.25;3.40;;;;;;;20.30;67.11;96470.06;5096413;28;20139;-69
2023/08/17 04:24:02;;;;;;;3.70;3.22;;;;;;;20.74;64.85;96464.81;5096399;28;20130;-69
2023/08/17 04:26:29;;;;;;;4.05;3.33;;;;;;;21.08;63.44;96467.41;5096107;28;20048;-69
2023/08/17 04:28:57;;;;;;;4.40;3.08;;;;;;;21.43;62.60;96462.81;5096313;28;20056;-69
2023/08/17 04:31:26;;;;;;;4.13;3.20;;;;;;;21.78;61.17;96467.97;5096384;28;20071;-69
2023/08/17 04:33:53;;;;;;;4.88;4.32;;;;;;;22.15;60.31;96471.97;5096258;28;20040;-70
2023/08/17 04:36:20;;;;;;;5.97;3.40;;;;;;;22.54;59.17;96476.59;5096302;28;20052;-68
2023/08/17 04:38:47;;;;;;;3.78;2.83;;;;;;;22.85;58.23;96472.06;5096234;28;20052;-69
2023/08/17 04:41:14;;;;;;;5.88;3.22;;;;;;;23.20;57.63;96477.03;5096243;28;20044;-69
2023/08/17 04:43:42;;;;;;;5.38;2.75;;;;;;;23.59;56.67;96474.41;5096021;28;20078;-69
2023/08/17 04:46:10;;;;;;;4.18;3.10;;;;;;;23.99;56.12;96474.34;5096030;28;20044;-69
2023/08/17 04:48:38;;;;;;;4.93;2.83;;;;;;;24.32;54.58;96469.47;5096033;28;20116;-69
2023/08/17 04:51:05;;;;;;;6.75;3.05;;;;;;;24.69;54.42;96475.78;5095951;28;20404;-69
2023/08/17 04:53:32;;;;;;;4.22;3.20;;;;;;;25.09;53.66;96476.41;5095859;28;20044;-69
2023/08/17 04:56:00;;;;;;;8.55;3.17;;;;;;;25.51;52.51;96470.56;5095676;28;20486;-69
2023/08/17 04:58:27;;;;;;;3.33;2.78;;;;;;;25.88;51.96;96461.50;5095791;28;20055;-69
2023/08/17 05:00:54;;;;;;;6.93;3.00;;;;;;;26.21;51.24;96467.09;5095847;28;20044;-69
2023/08/17 05:03:22;;;;;;;5.43;2.95;;;;;;;26.54;50.83;96470.94;5095656;28;20417;-69
2023/08/17 05:05:50;;;;;;;3.88;2.80;;;;;;;26.84;50.01;96474.06;5095611;28;20051;-69
2023/08/17 05:08:17;;;;;;;4.50;2.92;;;;;;;27.16;50.12;96471.66;5095485;28;20097;-69
2023/08/17 05:10:45;;;;;;;4.80;2.30;;;;;;;27.48;49.42;96475.41;5095378;28;20485;-69
2023/08/17 05:13:12;;;;;;;4.15;2.75;;;;;;;27.75;46.77;96478.75;5095446;28;20044;-69
2023/08/17 05:15:39;;;;;;;3.35;2.50;;;;;;;28.13;47.49;96478.22;5095445;28;20076;-69
2023/08/17 05:18:06;;;;;;;4.75;2.78;;;;;;;28.47;46.79;96476.34;5095353;28;20406;-69
2023/08/17 05:20:33;;;;;;;11.45;3.00;;;;;;;28.83;43.76;96470.44;5095341;28;20181;-69
2023/08/17 05:23:02;;;;;;;4.03;2.72;;;;;;;29.16;42.88;96480.19;5095271;28;20051;-69
2023/08/17 05:25:29;;;;;;;7.55;2.92;;;;;;;29.15;40.82;96481.22;5094903;28;20098;-69
2023/08/17 05:27:56;;;;;;;8.30;2.97;;;;;;;29.21;41.35;96483.22;5095127;28;20249;-69
2023/08/17 05:30:23;;;;;;;4.32;2.75;;;;;;;29.33;39.29;96480.94;5095290;28;20069;-69
2023/08/17 05:32:50;;;;;;;4.30;3.03;;;;;;;29.36;40.57;96485.13;5095135;28;20555;-69
2023/08/17 05:35:17;;;;;;;7.70;2.90;;;;;;;29.50;40.74;96487.03;5095076;28;20055;-68
2023/08/17 05:37:46;;;;;;;6.20;2.70;;;;;;;29.77;40.87;96487.53;5094908;28;20048;-69
2023/08/17 05:40:14;;;;;;;5.95;2.97;;;;;;;30.13;43.09;96479.81;5094886;28;20076;-69
2023/08/17 05:42:42;;;;;;;7.20;2.95;;;;;;;30.47;40.24;96483.84;5094956;28;20048;-69
2023/08/17 05:45:10;;;;;;;5.78;2.78;;;;;;;30.31;38.60;96481.31;5095105;28;20047;-69
2023/08/17 05:47:37;;;;;;;7.20;2.67;;;;;;;30.23;39.21;96476.84;5094618;28;20048;-69
2023/08/17 05:50:05;;;;;;;7.10;3.03;;;;;;;30.09;39.00;96483.84;5094772;28;20060;-69
2023/08/17 05:52:33;;;;;;;4.95;2.70;;;;;;;29.85;39.30;96485.78;5094719;28;20048;-68
2023/08/17 05:55:00;;;;;;;5.30;3.05;;;;;;;29.83;39.12;96482.44;5094662;28;20044;-69
2023/08/17 05:57:29;;;;;;;5.03;2.60;;;;;;;29.76;40.10;96480.47;5094456;28;20086;-68
2023/08/17 05:59:56;;;;;;;6.65;2.50;;;;;;;29.69;39.57;96479.53;5094585;28;20052;-68
2023/08/17 06:02:23;;;;;;;7.97;2.90;;;;;;;29.59;38.67;96477.06;5094449;28;20054;-68
2023/08/17 06:04:50;;;;;;;7.38;2.65;;;;;;;29.41;39.29;96485.44;5094472;28;20052;-68
2023/08/17 06:07:18;;;;;;;17.40;3.53;;;;;;;29.36;39.75;96485.13;5094369;28;20557;-69
2023/08/17 06:09:45;;;;;;;13.60;2.88;;;;;;;29.39;39.33;96479.38;5094474;28;20120;-68
2023/08/17 06:12:12;;;;;;;8.10;3.10;;;;;;;29.41;38.29;96481.91;5094431;28;20044;-68
2023/08/17 06:14:41;;;;;;;12.70;3.10;;;;;;;29.49;38.88;96479.13;5094306;28;20131;-68
2023/08/17 06:17:09;;;;;;;7.43;2.75;;;;;;;29.82;39.99;96478.91;5094199;28;20055;-68
2023/08/17 06:19:36;;;;;;;3.40;2.33;;;;;;;29.91;38.22;96485.03;5094166;28;20055;-68
2023/08/17 06:22:03;;;;;;;4.95;2.03;;;;;;;29.80;38.75;96480.09;5094282;28;20117;-68
2023/08/17 06:24:30;;;;;;;4.47;2.75;;;;;;;29.85;39.49;96475.84;5094130;28;20069;-68
2023/08/17 06:26:58;;;;;;;7.20;2.65;;;;;;;30.12;37.32;96481.66;5093839;28;20051;-68
2023/08/17 06:29:26;;;;;;;8.27;2.40;;;;;;;30.22;37.61;96476.00;5093958;28;20501;-68
2023/08/17 06:31:55;;;;;;;6.13;2.22;;;;;;;30.26;36.42;96476.47;5093906;28;20485;-68
2023/08/17 06:34:22;;;;;;;9.77;2.58;;;;;;;30.28;36.43;96479.84;5093854;28;20052;-68
2023/08/17 06:36:59;;;;;;;5.97;2.85;;;;;;;30.15;37.06;96477.75;5093549;28;20040;-68
2023/08/17 06:39:26;;;;;;;5.15;2.40;;;;;;;30.33;36.88;96477.41;5093933;28;20451;-68
2023/08/17 06:41:53;;;;;;;3.85;2.25;;;;;;;30.28;37.00;96477.16;5093737;28;20044;-68
2023/08/17 06:44:21;;;;;;;9.77;2.30;;;;;;;30.21;35.89;96477.03;5093733;28;20075;-68
2023/08/17 06:46:48;;;;;;;4.30;2.17;;;;;;;30.20;35.88;96474.53;5093592;28;20047;-68
2023/08/17 06:49:16;;;;;;;9.15;2.67;;;;;;;30.27;35.60;96470.91;5093826;28;20051;-68
2023/08/17 06:51:44;;;;;;;3.85;2.50;;;;;;;30.57;35.28;96478.16;5093686;28;20464;-68
2023/08/17 06:54:11;;;;;;;5.53;2.55;;;;;;;30.75;34.28;96474.22;5093659;28;20074;-68
2023/08/17 06:56:38;;;;;;;6.22;2.80;;;;;;;30.69;34.37;96469.56;5093495;28;20097;-68
2023/08/17 06:59:06;;;;;;;4.93;2.33;;;;;;;30.71;34.53;96479.16;5093379;28;20058;-68
2023/08/17 07:01:33;;;;;;;6.45;2.20;;;;;;;30.68;34.96;96462.50;5093509;28;20075;-68
2023/08/17 07:04:00;;;;;;;6.57;2.47;;;;;;;30.92;34.29;96472.19;5093261;28;20135;-68
2023/08/17 07:06:29;;;;;;;3.80;2.22;;;;;;;31.06;33.75;96462.34;5093422;28;20066;-68
2023/08/17 07:08:57;;;;;;;5.30;2.47;;;;;;;31.15;33.29;96471.16;5093150;28;20135;-68
2023/08/17 07:11:24;;;;;;;2.83;2.00;;;;;;;31.30;32.73;96470.31;5093259;28;20054;-68
2023/08/17 07:13:52;;;;;;;8.00;2.42;;;;;;;31.41;31.72;96453.59;5093352;28;20410;-68
2023/08/17 07:16:19;;;;;;;4.57;2.30;;;;;;;31.96;33.23;96463.84;5093259;28;20131;-68
2023/08/17 07:18:46;;;;;;;2.67;1.95;;;;;;;32.00;30.44;96462.41;5093119;28;20130;-68
2023/08/17 07:21:13;;;;;;;5.13;2.08;;;;;;;32.25;31.08;96464.69;5093131;28;20582;-68
2023/08/17 07:23:45;;;;;;;6.03;1.95;;;;;;;32.61;30.65;96456.56;5093169;28;20052;-68
2023/08/17 07:26:13;;;;;;;2.95;1.88;;;;;;;32.59;29.37;96454.06;5092870;28;20502;-68
2023/08/17 07:28:40;;;;;;;4.38;2.20;;;;;;;32.70;29.81;96465.34;5093016;28;20127;-68
2023/08/17 07:31:07;;;;;;;2.35;2.10;;;;;;;32.77;29.54;96455.38;5093082;28;20040;-68
2023/08/17 07:33:35;;;;;;;2.95;1.92;;;;;;;32.86;28.93;96464.16;5093073;28;20093;-68
2023/08/17 07:36:02;;;;;;;4.53;2.50;;;;;;;32.78;28.15;96460.59;5093085;28;20048;-68
2023/08/17 07:38:29;;;;;;;5.07;2.35;;;;;;;32.71;27.23;96459.72;5093067;28;20063;-68
2023/08/17 07:40:58;;;;;;;4.82;2.40;;;;;;;32.59;27.34;96456.75;5093137;28;20047;-68
2023/08/17 07:43:25;;;;;;;4.18;2.45;;;;;;;32.38;30.29;96460.34;5093107;28;20525;-68
2023/08/17 07:45:56;;;;;;;4.50;2.63;;;;;;;32.32;27.84;96458.47;5093039;28;20139;-68
2023/08/17 07:48:24;;;;;;;3.75;2.40;;;;;;;32.07;28.67;96464.34;5094665;28;20425;-68
2023/08/17 07:50:52;;;;;;;3.85;2.50;;;;;;;31.84;28.30;96462.72;5097081;28;20052;-68
2023/08/17 07:53:20;;;;;;;2.67;2.17;;;;;;;31.63;28.34;96454.41;5096988;28;20092;-68
2023/08/17 07:55:50;;;;;;;5.20;2.40;;;;;;;31.63;29.36;96462.53;5097018;28;20051;-67
2023/08/17 07:58:19;;;;;;;3.58;2.80;;;;;;;31.71;28.90;96461.56;5096851;28;20048;-67
2023/08/17 08:00:46;;;;;;;4.53;2.33;;;;;;;31.84;28.30;96460.00;5096804;28;20048;-67
2023/08/17 08:03:15;;;;;;;3.50;2.13;;;;;;;32.05;28.72;96456.41;5096775;28;20048;-68
2023/08/17 08:05:42;;;;;;;4.82;2.38;;;;;;;32.04;28.09;96462.88;5096642;28;20050;-69
2023/08/17 08:08:10;;;;;;;5.68;2.67;;;;;;;32.10;28.38;96455.84;5096522;28;20405;-68
2023/08/17 08:10:37;;;;;;;5.70;2.60;;;;;;;31.96;28.10;96458.44;5096692;28;20489;-68
2023/08/17 08:13:05;;;;;;;5.07;2.80;;;;;;;32.05;29.40;96448.31;5096620;28;20044;-68
2023/08/17 08:15:34;;;;;;;4.57;2.83;;;;;;;32.59;28.92;96437.00;5096466;28;20495;-68
2023/08/17 08:18:02;;;;;;;4.50;2.60;;;;;;;32.90;28.93;96441.06;5096504;28;20051;-68
2023/08/17 08:20:30;;;;;;;5.45;2.80;;;;;;;33.15;28.27;96443.25;5096552;28;20051;-68
2023/08/17 08:22:57;;;;;;;4.00;2.50;;;;;;;33.19;27.22;96449.91;5096465;28;20048;-68
2023/08/17 08:25:25;;;;;;;6.07;2.63;;;;;;;32.84;28.11;96439.16;5096410;28;20044;-68
2023/08/17 08:27:52;;;;;;;5.65;2.42;;;;;;;32.94;28.69;96444.19;5096392;28;20048;-68
2023/08/17 08:30:19;;;;;;;4.70;3.10;;;;;;;32.82;28.29;96442.06;5096223;28;20056;-68
2023/08/17 08:32:48;;;;;;;6.85;2.50;;;;;;;32.70;29.24;96441.81;5096234;28;20094;-68
2023/08/17 08:35:16;;;;;;;5.32;3.17;;;;;;;32.73;28.25;96441.44;5096256;28;20048;-68
2023/08/17 08:37:45;;;;;;;4.95;2.45;;;;;;;32.44;28.98;96434.41;5096071;28;20048;-68
2023/08/17 08:40:14;;;;;;;6.90;2.60;;;;;;;32.69;28.53;96442.03;5096110;28;20099;-68
2023/08/17 08:42:42;;;;;;;4.07;2.50;;;;;;;32.69;28.64;96436.63;5095916;28;20048;-68
2023/08/17 08:45:10;;;;;;;5.18;2.50;;;;;;;32.67;28.98;96436.81;5096137;28;20052;-68
2023/08/17 08:47:38;;;;;;;3.58;2.72;;;;;;;32.71;29.48;96435.38;5095940;28;20135;-68
2023/08/17 08:50:10;;;;;;;4.20;2.45;;;;;;;32.96;27.70;96423.97;5095929;28;20052;-68
2023/08/17 08:52:43;;;;;;;3.08;2.47;;;;;;;32.92;28.19;96430.03;5095917;28;20090;-68
2023/08/17 08:55:20;;;;;;;6.88;2.70;;;;;;;32.26;27.95;96438.44;5095878;28;20052;-68
2023/08/17 08:57:49;;;;;;;5.20;2.92;;;;;;;32.16;28.16;96430.69;5095754;28;20051;-68
2023/08/17 09:00:18;;;;;;;6.75;2.47;;;;;;;32.27;27.72;96429.31;5095288;28;20113;-68
2023/08/17 09:02:47;;;;;;;3.67;2.70;;;;;;;32.39;27.70;96433.09;5095711;28;20074;-68
2023/08/17 09:05:18;;;;;;;4.88;2.90;;;;;;;32.25;28.46;96429.50;5095556;28;20122;-68
2023/08/17 09:07:50;;;;;;;7.10;3.03;;;;;;;32.62;29.69;96423.88;5095593;28;20052;-68
2023/08/17 09:10:18;;;;;;;8.90;2.83;;;;;;;32.87;28.22;96408.97;5095481;28;20052;-68
2023/08/17 09:12:47;;;;;;;4.75;2.70;;;;;;;32.72;27.88;96434.31;5095414;28;20040;-68
2023/08/17 09:15:14;;;;;;;3.25;2.30;;;;;;;32.51;29.13;96429.88;5095470;28;20076;-68
2023/08/17 09:17:42;;;;;;;5.72;3.22;;;;;;;32.71;28.44;96416.41;5095331;28;20044;-67
2023/08/17 09:20:35;;;;;;;4.05;2.33;;;;;;;33.03;28.89;96415.88;5095268;28;20378;-68
2023/08/17 09:23:05;;;;;;;4.75;2.58;;;;;;;33.26;27.02;96412.00;5095340;28;20045;-68
2023/08/17 09:25:34;;;;;;;;;;;;;;;32.88;27.64;96419.59;5095458;28;20135;-68
2023/08/17 09:28:09;;;;;;;4.35;2.75;;;;;;;32.56;28.80;96416.56;5095240;28;19926;-67
2023/08/17 09:30:51;;;;;;;3.80;2.50;;;;;;;32.80;27.79;96402.72;5095132;28;20044;-67
2023/08/17 09:33:19;;;;;;;5.32;2.47;;;;;;;33.00;27.46;96397.34;5095077;28;20048;-68
2023/08/17 09:35:50;;;;;;;4.95;2.55;;;;;;;32.85;28.83;96411.06;5095046;28;20493;-68
2023/08/17 09:38:17;;;;;;;;;;;;;;;32.89;27.44;96407.72;5095377;28;20524;-68
2023/08/17 09:40:45;;;;;;;3.90;2.53;;;;;;;33.07;27.74;96400.09;5094973;28;20331;-68
2023/08/17 09:43:16;;;;;;;3.78;2.42;;;;;;;33.31;26.79;96401.38;5094823;28;20048;-67
2023/08/17 09:45:47;;;;;;;6.18;2.60;;;;;;;33.33;26.64;96401.16;5094829;28;20531;-67
2023/08/17 09:48:17;;;;;;;5.82;2.50;;;;;;;33.18;27.21;96406.78;5094800;28;20040;-68
2023/08/17 09:50:45;;;;;;;3.45;2.58;;;;;;;33.25;27.48;96402.19;5094726;28;20428;-68
2023/08/17 09:53:17;;;;;;;5.68;2.70;;;;;;;33.44;27.03;96397.00;5094630;28;20044;-69
2023/08/17 09:55:45;;;;;;;4.60;2.50;;;;;;;33.40;26.29;96396.56;5094525;28;20390;-68
2023/08/17 09:58:14;;;;;;;6.97;2.47;;;;;;;33.50;27.02;96402.41;5094482;28;20059;-67
2023/08/17 10:00:46;;;;;;;4.72;2.40;;;;;;;33.56;26.28;96392.63;5094458;28;20131;-68
2023/08/17 10:03:15;;;;;;;3.78;2.63;;;;;;;33.59;26.11;96391.41;5094492;28;20066;-68
2023/08/17 10:05:46;;;;;;;5.00;2.35;;;;;;;33.49;26.84;96408.03;5094371;28;20482;-68
2023/08/17 10:08:21;;;;;;;5.72;2.83;;;;;;;33.50;25.88;96404.31;5094365;28;20040;-68
2023/08/17 10:10:49;;;;;;;3.75;2.60;;;;;;;33.46;26.92;96403.88;5093431;28;20055;-67
2023/08/17 10:13:28;;;;;;;3.63;2.53;;;;;;;33.31;26.62;96397.84;5094209;28;20170;-68
2023/08/17 10:16:03;;;;;;;8.13;2.80;;;;;;;33.18;27.33;96399.50;5094259;28;20089;-68
2023/08/17 10:18:39;;;;;;;5.93;2.53;;;;;;;32.97;27.08;96395.88;5094146;28;20055;-68
2023/08/17 10:21:13;;;;;;;4.43;2.83;;;;;;;33.13;28.03;96396.56;5094096;28;20090;-68
2023/08/17 10:23:44;;;;;;;3.78;2.35;;;;;;;33.47;26.58;96399.31;5094101;28;20401;-68
2023/08/17 10:26:11;;;;;;;2.83;2.33;;;;;;;33.50;25.84;96394.28;5093851;28;20390;-68
2023/08/17 10:28:44;;;;;;;5.10;2.38;;;;;;;33.39;26.29;96390.34;5094062;28;20052;-68
2023/08/17 10:31:12;;;;;;;5.47;2.17;;;;;;;33.38;27.11;96390.56;5093995;28;20087;-68
2023/08/17 10:33:45;;;;;;;5.20;2.45;;;;;;;33.48;25.67;96390.13;5094050;28;20503;-67
2023/08/17 10:36:15;;;;;;;5.78;2.13;;;;;;;33.61;25.46;96383.88;5093764;28;20048;-68
2023/08/17 10:38:44;;;;;;;5.60;2.40;;;;;;;33.61;27.19;96394.72;5093942;28;20044;-68
2023/08/17 10:41:13;;;;;;;5.05;2.30;;;;;;;33.54;24.85;96375.75;5093951;28;20134;-67
2023/08/17 10:43:57;;;;;;;8.05;2.30;;;;;;;33.70;24.86;96379.94;5094003;28;20089;-68
2023/08/17 10:46:35;;;;;;;2.88;2.60;;;;;;;33.60;24.44;96374.94;5093664;28;20044;-68
2023/08/17 10:49:06;;;;;;;3.28;2.15;;;;;;;33.45;25.01;96377.84;5093657;28;20421;-68
2023/08/17 10:51:34;;;;;;;5.25;2.20;;;;;;;33.38;23.24;96368.88;5093519;28;20044;-68
2023/08/17 10:54:05;;;;;;;5.55;2.30;;;;;;;33.15;23.84;96380.94;5093549;28;20047;-68
2023/08/17 10:56:34;;;;;;;2.40;2.00;;;;;;;33.03;24.16;96373.41;5093628;28;20048;-67
2023/08/17 10:59:02;;;;;;;6.18;2.20;;;;;;;33.15;23.83;96367.41;5093527;28;20131;-68
2023/08/17 11:01:34;;;;;;;2.88;2.05;;;;;;;33.24;25.18;96363.44;5093489;28;20047;-68
2023/08/17 11:04:12;;;;;;;5.25;2.15;;;;;;;33.31;24.91;96368.84;5093433;28;20087;-68
2023/08/17 11:06:41;;;;;;;2.85;2.33;;;;;;;33.45;24.89;96366.16;5093381;28;20044;-67
2023/08/17 11:09:11;;;;;;;4.20;2.22;;;;;;;33.58;25.02;96373.44;5093320;28;20547;-68
2023/08/17 11:11:39;;;;;;;5.20;2.67;;;;;;;33.62;25.26;96367.41;5093357;28;20434;-68
2023/08/17 11:14:08;;;;;;;3.30;2.22;;;;;;;33.60;25.59;96387.66;5093318;28;20079;-67
2023/08/17 11:16:36;;;;;;;2.90;2.10;;;;;;;33.33;24.88;96366.78;5093188;28;20566;-68
2023/08/17 11:19:04;;;;;;;5.30;2.53;;;;;;;33.32;25.85;96367.00;5093210;28;20127;-68
2023/08/17 11:21:32;;;;;;;4.25;1.95;;;;;;;33.20;25.91;96380.31;5092959;28;20056;-68
2023/08/17 11:24:00;;;;;;;4.70;2.20;;;;;;;33.17;25.22;96370.75;5093157;28;20052;-68
2023/08/17 11:26:29;;;;;;;7.40;2.10;;;;;;;33.31;26.48;96349.09;5092749;28;20436;-68
2023/08/17 11:28:57;;;;;;;4.30;2.42;;;;;;;33.60;25.51;96355.97;5093115;28;20044;-68
2023/08/17 11:31:24;;;;;;;3.38;2.05;;;;;;;33.64;25.14;96353.66;5092948;28;20059;-68
2023/08/17 11:33:51;;;;;;;5.63;2.25;;;;;;;33.47;25.25;96370.31;5093032;28;20044;-68
2023/08/17 11:36:21;;;;;;;3.13;1.88;;;;;;;33.33;26.15;96358.66;5093167;28;20048;-68
2023/08/17 11:38:50;;;;;;;4.13;2.25;;;;;;;33.35;26.50;96353.84;5093153;28;20048;-67
2023/08/17 11:41:21;;;;;;;6.07;2.92;;;;;;;33.42;27.28;96345.72;5093030;28;20047;-68